sensor_id;sensor_type;location;lat;lon;timestamp;P1;durP1;ratioP1;P2;durP2;ratioP2
60973;SDS011;46846;51.528;5.076;2023-09-18T00:00:46;375.13;;;356.13;;
60973;SDS011;46846;51.528;5.076;2023-09-18T00:03:14;397.48;;;377.75;;
60973;SDS011;46846;51.528;5.076;2023-09-18T00:05:40;398.20;;;378.08;;
60973;SDS011;46846;51.528;5.076;2023-09-18T00:08:06;400.08;;;379.45;;
60973;SDS011;46846;51.528;5.076;2023-09-18T00:10:31;395.35;;;375.70;;
60973;SDS011;46846;51.528;5.076;2023-09-18T00:12:57;387.98;;;368.67;;
60973;SDS011;46846;51.528;5.076;2023-09-18T00:15:22;383.10;;;363.75;;
60973;SDS011;46846;51.528;5.076;2023-09-18T00:17:49;390.50;;;371.05;;
60973;SDS011;46846;51.528;5.076;2023-09-18T00:20:14;393.67;;;373.90;;
60973;SDS011;46846;51.528;5.076;2023-09-18T00:22:42;378.88;;;359.77;;
60973;SDS011;46846;51.528;5.076;2023-09-18T00:25:07;398.55;;;378.65;;
60973;SDS011;46846;51.528;5.076;2023-09-18T00:27:33;383.45;;;364.42;;
60973;SDS011;46846;51.528;5.076;2023-09-18T00:29:58;383.13;;;363.83;;
60973;SDS011;46846;51.528;5.076;2023-09-18T00:32:24;393.60;;;373.90;;
60973;SDS011;46846;51.528;5.076;2023-09-18T00:34:49;400.70;;;380.80;;
60973;SDS011;46846;51.528;5.076;2023-09-18T00:37:15;394.17;;;374.67;;
60973;SDS011;46846;51.528;5.076;2023-09-18T00:39:41;388.08;;;368.65;;
60973;SDS011;46846;51.528;5.076;2023-09-18T00:42:07;379.77;;;360.48;;
60973;SDS011;46846;51.528;5.076;2023-09-18T00:44:32;385.42;;;366.25;;
60973;SDS011;46846;51.528;5.076;2023-09-18T00:46:58;378.98;;;359.90;;
60973;SDS011;46846;51.528;5.076;2023-09-18T00:49:23;392.55;;;373.05;;
60973;SDS011;46846;51.528;5.076;2023-09-18T00:51:49;409.63;;;389.17;;
60973;SDS011;46846;51.528;5.076;2023-09-18T00:54:16;389.17;;;369.83;;
60973;SDS011;46846;51.528;5.076;2023-09-18T00:56:47;387.42;;;368.15;;
60973;SDS011;46846;51.528;5.076;2023-09-18T00:59:19;396.73;;;376.85;;
60973;SDS011;46846;51.528;5.076;2023-09-18T01:01:45;397.65;;;377.65;;
60973;SDS011;46846;51.528;5.076;2023-09-18T01:04:13;379.73;;;360.67;;
60973;SDS011;46846;51.528;5.076;2023-09-18T01:06:38;385.23;;;366.02;;
60973;SDS011;46846;51.528;5.076;2023-09-18T01:09:04;379.65;;;360.77;;
60973;SDS011;46846;51.528;5.076;2023-09-18T01:11:49;390.15;;;370.38;;
60973;SDS011;46846;51.528;5.076;2023-09-18T01:14:20;399.73;;;380.00;;
60973;SDS011;46846;51.528;5.076;2023-09-18T01:16:56;383.13;;;363.50;;
60973;SDS011;46846;51.528;5.076;2023-09-18T01:19:41;392.73;;;373.08;;
60973;SDS011;46846;51.528;5.076;2023-09-18T01:22:12;392.70;;;373.08;;
60973;SDS011;46846;51.528;5.076;2023-09-18T01:24:40;388.63;;;369.45;;
60973;SDS011;46846;51.528;5.076;2023-09-18T01:27:08;387.95;;;368.60;;
60973;SDS011;46846;51.528;5.076;2023-09-18T01:29:35;387.35;;;368.13;;
60973;SDS011;46846;51.528;5.076;2023-09-18T01:32:00;384.25;;;365.08;;
60973;SDS011;46846;51.528;5.076;2023-09-18T01:34:28;382.48;;;363.42;;
60973;SDS011;46846;51.528;5.076;2023-09-18T01:37:05;381.05;;;361.98;;
60973;SDS011;46846;51.528;5.076;2023-09-18T01:39:33;379.60;;;360.60;;
60973;SDS011;46846;51.528;5.076;2023-09-18T01:42:01;381.83;;;362.80;;
60973;SDS011;46846;51.528;5.076;2023-09-18T01:44:30;386.95;;;367.77;;
60973;SDS011;46846;51.528;5.076;2023-09-18T01:46:57;381.65;;;362.23;;
60973;SDS011;46846;51.528;5.076;2023-09-18T01:49:42;381.80;;;362.67;;
60973;SDS011;46846;51.528;5.076;2023-09-18T01:52:08;387.98;;;368.65;;
60973;SDS011;46846;51.528;5.076;2023-09-18T01:54:34;376.88;;;357.95;;
60973;SDS011;46846;51.528;5.076;2023-09-18T01:57:01;376.17;;;357.42;;
60973;SDS011;46846;51.528;5.076;2023-09-18T01:59:27;385.40;;;366.10;;
60973;SDS011;46846;51.528;5.076;2023-09-18T02:01:53;388.58;;;369.10;;
60973;SDS011;46846;51.528;5.076;2023-09-18T02:04:19;368.23;;;349.67;;
60973;SDS011;46846;51.528;5.076;2023-09-18T02:06:45;388.60;;;369.02;;
60973;SDS011;46846;51.528;5.076;2023-09-18T02:09:12;389.23;;;369.52;;
60973;SDS011;46846;51.528;5.076;2023-09-18T02:11:41;376.17;;;356.48;;
60973;SDS011;46846;51.528;5.076;2023-09-18T02:14:08;365.95;;;346.80;;
60973;SDS011;46846;51.528;5.076;2023-09-18T02:16:38;384.42;;;365.17;;
60973;SDS011;46846;51.528;5.076;2023-09-18T02:19:08;372.52;;;353.73;;
60973;SDS011;46846;51.528;5.076;2023-09-18T02:21:35;382.02;;;362.52;;
60973;SDS011;46846;51.528;5.076;2023-09-18T02:24:01;382.25;;;362.83;;
60973;SDS011;46846;51.528;5.076;2023-09-18T02:26:27;382.33;;;362.25;;
60973;SDS011;46846;51.528;5.076;2023-09-18T02:28:52;368.83;;;350.50;;
60973;SDS011;46846;51.528;5.076;2023-09-18T02:31:19;372.67;;;354.10;;
60973;SDS011;46846;51.528;5.076;2023-09-18T02:33:45;375.00;;;356.02;;
60973;SDS011;46846;51.528;5.076;2023-09-18T02:36:11;371.83;;;352.98;;
60973;SDS011;46846;51.528;5.076;2023-09-18T02:38:37;369.45;;;350.55;;
60973;SDS011;46846;51.528;5.076;2023-09-18T02:41:03;381.25;;;362.05;;
60973;SDS011;46846;51.528;5.076;2023-09-18T02:43:28;387.15;;;367.77;;
60973;SDS011;46846;51.528;5.076;2023-09-18T02:45:54;374.25;;;355.42;;
60973;SDS011;46846;51.528;5.076;2023-09-18T02:48:19;383.60;;;364.35;;
60973;SDS011;46846;51.528;5.076;2023-09-18T02:50:45;374.23;;;355.50;;
60973;SDS011;46846;51.528;5.076;2023-09-18T02:53:20;377.23;;;358.25;;
60973;SDS011;46846;51.528;5.076;2023-09-18T02:55:48;385.50;;;366.40;;
60973;SDS011;46846;51.528;5.076;2023-09-18T02:58:14;382.80;;;363.13;;
60973;SDS011;46846;51.528;5.076;2023-09-18T03:00:44;374.40;;;354.90;;
60973;SDS011;46846;51.528;5.076;2023-09-18T03:03:11;389.65;;;369.10;;
60973;SDS011;46846;51.528;5.076;2023-09-18T03:05:37;367.88;;;349.40;;
60973;SDS011;46846;51.528;5.076;2023-09-18T03:08:03;369.73;;;351.02;;
60973;SDS011;46846;51.528;5.076;2023-09-18T03:10:38;393.33;;;373.92;;
60973;SDS011;46846;51.528;5.076;2023-09-18T03:13:05;374.58;;;355.90;;
60973;SDS011;46846;51.528;5.076;2023-09-18T03:15:31;382.50;;;362.85;;
60973;SDS011;46846;51.528;5.076;2023-09-18T03:17:57;389.35;;;369.83;;
60973;SDS011;46846;51.528;5.076;2023-09-18T03:20:23;381.42;;;361.92;;
60973;SDS011;46846;51.528;5.076;2023-09-18T03:22:54;373.20;;;354.48;;
60973;SDS011;46846;51.528;5.076;2023-09-18T03:25:21;385.70;;;365.20;;
60973;SDS011;46846;51.528;5.076;2023-09-18T03:27:50;387.23;;;367.92;;
60973;SDS011;46846;51.528;5.076;2023-09-18T03:30:20;397.98;;;377.55;;
60973;SDS011;46846;51.528;5.076;2023-09-18T03:32:48;393.17;;;373.38;;
60973;SDS011;46846;51.528;5.076;2023-09-18T03:35:14;388.85;;;368.45;;
60973;SDS011;46846;51.528;5.076;2023-09-18T03:37:46;380.08;;;360.13;;
60973;SDS011;46846;51.528;5.076;2023-09-18T03:40:12;383.20;;;363.85;;
60973;SDS011;46846;51.528;5.076;2023-09-18T03:42:38;376.02;;;357.10;;
60973;SDS011;46846;51.528;5.076;2023-09-18T03:45:06;366.25;;;347.55;;
60973;SDS011;46846;51.528;5.076;2023-09-18T03:47:36;375.80;;;356.92;;
60973;SDS011;46846;51.528;5.076;2023-09-18T03:50:04;368.67;;;349.98;;
60973;SDS011;46846;51.528;5.076;2023-09-18T03:52:33;376.38;;;356.90;;
60973;SDS011;46846;51.528;5.076;2023-09-18T03:54:59;391.80;;;372.20;;
60973;SDS011;46846;51.528;5.076;2023-09-18T03:57:24;379.45;;;360.15;;
60973;SDS011;46846;51.528;5.076;2023-09-18T03:59:50;377.75;;;358.63;;
60973;SDS011;46846;51.528;5.076;2023-09-18T04:02:15;375.00;;;355.48;;
60973;SDS011;46846;51.528;5.076;2023-09-18T04:04:41;369.70;;;350.77;;
60973;SDS011;46846;51.528;5.076;2023-09-18T04:07:06;375.65;;;356.85;;
60973;SDS011;46846;51.528;5.076;2023-09-18T04:09:32;378.35;;;359.20;;
60973;SDS011;46846;51.528;5.076;2023-09-18T04:11:59;370.17;;;351.42;;
60973;SDS011;46846;51.528;5.076;2023-09-18T04:14:25;390.48;;;370.50;;
60973;SDS011;46846;51.528;5.076;2023-09-18T04:16:51;371.90;;;352.92;;
60973;SDS011;46846;51.528;5.076;2023-09-18T04:19:16;387.45;;;368.20;;
60973;SDS011;46846;51.528;5.076;2023-09-18T04:21:42;369.80;;;351.33;;
60973;SDS011;46846;51.528;5.076;2023-09-18T04:24:07;381.45;;;362.40;;
60973;SDS011;46846;51.528;5.076;2023-09-18T04:26:33;390.50;;;371.15;;
60973;SDS011;46846;51.528;5.076;2023-09-18T04:28:59;379.83;;;360.75;;
60973;SDS011;46846;51.528;5.076;2023-09-18T04:31:25;364.25;;;345.98;;
60973;SDS011;46846;51.528;5.076;2023-09-18T04:33:50;379.02;;;359.63;;
60973;SDS011;46846;51.528;5.076;2023-09-18T04:36:16;381.45;;;361.77;;
60973;SDS011;46846;51.528;5.076;2023-09-18T04:38:41;351.38;;;333.73;;
60973;SDS011;46846;51.528;5.076;2023-09-18T04:41:06;383.05;;;364.00;;
60973;SDS011;46846;51.528;5.076;2023-09-18T04:43:35;378.88;;;359.63;;
60973;SDS011;46846;51.528;5.076;2023-09-18T04:46:01;383.83;;;364.80;;
60973;SDS011;46846;51.528;5.076;2023-09-18T04:48:29;368.92;;;350.63;;
60973;SDS011;46846;51.528;5.076;2023-09-18T04:50:55;368.15;;;349.85;;
60973;SDS011;46846;51.528;5.076;2023-09-18T04:53:20;384.65;;;365.35;;
60973;SDS011;46846;51.528;5.076;2023-09-18T04:55:46;375.40;;;356.52;;
60973;SDS011;46846;51.528;5.076;2023-09-18T04:58:14;379.42;;;360.38;;
60973;SDS011;46846;51.528;5.076;2023-09-18T05:00:40;370.38;;;351.63;;
60973;SDS011;46846;51.528;5.076;2023-09-18T05:03:06;379.80;;;360.38;;
60973;SDS011;46846;51.528;5.076;2023-09-18T05:05:33;365.23;;;346.88;;
60973;SDS011;46846;51.528;5.076;2023-09-18T05:08:00;359.13;;;341.08;;
60973;SDS011;46846;51.528;5.076;2023-09-18T05:10:26;384.10;;;365.00;;
60973;SDS011;46846;51.528;5.076;2023-09-18T05:12:51;370.02;;;351.70;;
60973;SDS011;46846;51.528;5.076;2023-09-18T05:15:23;372.10;;;353.20;;
60973;SDS011;46846;51.528;5.076;2023-09-18T05:17:51;367.85;;;349.48;;
60973;SDS011;46846;51.528;5.076;2023-09-18T05:20:20;376.17;;;357.40;;
60973;SDS011;46846;51.528;5.076;2023-09-18T05:22:49;369.40;;;351.00;;
60973;SDS011;46846;51.528;5.076;2023-09-18T05:25:15;380.50;;;361.55;;
60973;SDS011;46846;51.528;5.076;2023-09-18T05:27:40;379.10;;;360.17;;
60973;SDS011;46846;51.528;5.076;2023-09-18T05:30:12;383.33;;;363.63;;
60973;SDS011;46846;51.528;5.076;2023-09-18T05:32:40;373.65;;;354.63;;
60973;SDS011;46846;51.528;5.076;2023-09-18T05:35:06;381.65;;;362.70;;
60973;SDS011;46846;51.528;5.076;2023-09-18T05:37:35;378.35;;;358.90;;
60973;SDS011;46846;51.528;5.076;2023-09-18T05:40:01;359.75;;;341.75;;
60973;SDS011;46846;51.528;5.076;2023-09-18T05:42:26;388.30;;;369.00;;
60973;SDS011;46846;51.528;5.076;2023-09-18T05:44:51;372.58;;;354.00;;
60973;SDS011;46846;51.528;5.076;2023-09-18T05:47:17;381.75;;;362.30;;
60973;SDS011;46846;51.528;5.076;2023-09-18T05:49:42;375.42;;;356.13;;
60973;SDS011;46846;51.528;5.076;2023-09-18T05:52:08;368.50;;;350.00;;
60973;SDS011;46846;51.528;5.076;2023-09-18T05:54:33;364.15;;;346.00;;
60973;SDS011;46846;51.528;5.076;2023-09-18T05:56:58;358.23;;;340.00;;
60973;SDS011;46846;51.528;5.076;2023-09-18T05:59:24;375.00;;;356.30;;
60973;SDS011;46846;51.528;5.076;2023-09-18T06:01:49;355.92;;;337.95;;
60973;SDS011;46846;51.528;5.076;2023-09-18T06:04:15;369.95;;;351.45;;
60973;SDS011;46846;51.528;5.076;2023-09-18T06:06:42;370.13;;;351.42;;
60973;SDS011;46846;51.528;5.076;2023-09-18T06:09:07;375.55;;;356.80;;
60973;SDS011;46846;51.528;5.076;2023-09-18T06:11:33;367.73;;;349.33;;
60973;SDS011;46846;51.528;5.076;2023-09-18T06:13:58;367.70;;;349.33;;
60973;SDS011;46846;51.528;5.076;2023-09-18T06:16:23;372.38;;;353.88;;
60973;SDS011;46846;51.528;5.076;2023-09-18T06:18:49;370.80;;;352.38;;
60973;SDS011;46846;51.528;5.076;2023-09-18T06:21:15;369.13;;;350.92;;
60973;SDS011;46846;51.528;5.076;2023-09-18T06:23:40;371.52;;;352.98;;
60973;SDS011;46846;51.528;5.076;2023-09-18T06:26:05;371.13;;;352.40;;
60973;SDS011;46846;51.528;5.076;2023-09-18T06:28:31;366.00;;;347.80;;
60973;SDS011;46846;51.528;5.076;2023-09-18T06:30:56;388.15;;;368.65;;
60973;SDS011;46846;51.528;5.076;2023-09-18T06:33:22;368.17;;;349.83;;
60973;SDS011;46846;51.528;5.076;2023-09-18T06:35:47;373.33;;;354.75;;
60973;SDS011;46846;51.528;5.076;2023-09-18T06:38:13;363.88;;;345.60;;
60973;SDS011;46846;51.528;5.076;2023-09-18T06:40:40;373.42;;;354.60;;
60973;SDS011;46846;51.528;5.076;2023-09-18T06:43:06;368.35;;;349.98;;
60973;SDS011;46846;51.528;5.076;2023-09-18T06:45:31;369.65;;;351.25;;
60973;SDS011;46846;51.528;5.076;2023-09-18T06:47:58;372.73;;;354.33;;
60973;SDS011;46846;51.528;5.076;2023-09-18T06:50:25;361.88;;;343.63;;
60973;SDS011;46846;51.528;5.076;2023-09-18T06:52:50;385.20;;;366.08;;
60973;SDS011;46846;51.528;5.076;2023-09-18T06:55:16;368.05;;;349.77;;
60973;SDS011;46846;51.528;5.076;2023-09-18T06:57:42;369.95;;;351.75;;
60973;SDS011;46846;51.528;5.076;2023-09-18T07:00:08;362.50;;;344.65;;
60973;SDS011;46846;51.528;5.076;2023-09-18T07:02:34;374.88;;;356.42;;
60973;SDS011;46846;51.528;5.076;2023-09-18T07:04:59;368.42;;;350.25;;
60973;SDS011;46846;51.528;5.076;2023-09-18T07:07:24;372.90;;;354.15;;
60973;SDS011;46846;51.528;5.076;2023-09-18T07:09:53;357.58;;;339.77;;
60973;SDS011;46846;51.528;5.076;2023-09-18T07:12:18;363.92;;;346.02;;
60973;SDS011;46846;51.528;5.076;2023-09-18T07:14:45;362.33;;;344.30;;
60973;SDS011;46846;51.528;5.076;2023-09-18T07:17:11;352.05;;;334.58;;
60973;SDS011;46846;51.528;5.076;2023-09-18T07:19:36;373.17;;;354.80;;
60973;SDS011;46846;51.528;5.076;2023-09-18T07:22:02;357.63;;;339.90;;
60973;SDS011;46846;51.528;5.076;2023-09-18T07:24:27;361.52;;;343.63;;
60973;SDS011;46846;51.528;5.076;2023-09-18T07:26:53;371.52;;;353.08;;
60973;SDS011;46846;51.528;5.076;2023-09-18T07:29:19;362.95;;;344.63;;
60973;SDS011;46846;51.528;5.076;2023-09-18T07:31:45;364.27;;;346.05;;
60973;SDS011;46846;51.528;5.076;2023-09-18T07:34:11;354.00;;;336.50;;
60973;SDS011;46846;51.528;5.076;2023-09-18T07:36:38;367.42;;;349.40;;
60973;SDS011;46846;51.528;5.076;2023-09-18T07:39:04;364.60;;;346.52;;
60973;SDS011;46846;51.528;5.076;2023-09-18T07:41:29;362.45;;;344.48;;
60973;SDS011;46846;51.528;5.076;2023-09-18T07:43:56;379.60;;;360.77;;
60973;SDS011;46846;51.528;5.076;2023-09-18T07:46:23;378.98;;;360.40;;
60973;SDS011;46846;51.528;5.076;2023-09-18T07:48:48;362.15;;;344.17;;
60973;SDS011;46846;51.528;5.076;2023-09-18T07:51:14;361.33;;;343.45;;
60973;SDS011;46846;51.528;5.076;2023-09-18T07:53:41;359.00;;;340.83;;
60973;SDS011;46846;51.528;5.076;2023-09-18T07:56:07;351.33;;;334.08;;
60973;SDS011;46846;51.528;5.076;2023-09-18T07:58:32;369.85;;;351.33;;
60973;SDS011;46846;51.528;5.076;2023-09-18T08:00:58;360.98;;;343.17;;
60973;SDS011;46846;51.528;5.076;2023-09-18T08:03:24;375.10;;;356.60;;
60973;SDS011;46846;51.528;5.076;2023-09-18T08:05:51;351.73;;;334.00;;
60973;SDS011;46846;51.528;5.076;2023-09-18T08:08:18;353.27;;;335.70;;
60973;SDS011;46846;51.528;5.076;2023-09-18T08:10:45;365.85;;;347.80;;
60973;SDS011;46846;51.528;5.076;2023-09-18T08:13:11;358.60;;;340.65;;
60973;SDS011;46846;51.528;5.076;2023-09-18T08:15:37;357.52;;;339.35;;
60973;SDS011;46846;51.528;5.076;2023-09-18T08:18:02;354.20;;;336.77;;
60973;SDS011;46846;51.528;5.076;2023-09-18T08:20:28;373.38;;;354.83;;
60973;SDS011;46846;51.528;5.076;2023-09-18T08:22:54;364.92;;;346.88;;
60973;SDS011;46846;51.528;5.076;2023-09-18T08:25:19;369.05;;;350.65;;
60973;SDS011;46846;51.528;5.076;2023-09-18T08:27:45;362.65;;;344.50;;
60973;SDS011;46846;51.528;5.076;2023-09-18T08:30:11;367.27;;;348.98;;
60973;SDS011;46846;51.528;5.076;2023-09-18T08:32:38;350.83;;;333.23;;
60973;SDS011;46846;51.528;5.076;2023-09-18T08:35:04;363.55;;;345.35;;
60973;SDS011;46846;51.528;5.076;2023-09-18T08:37:30;356.33;;;338.65;;
60973;SDS011;46846;51.528;5.076;2023-09-18T08:39:56;364.42;;;346.42;;
60973;SDS011;46846;51.528;5.076;2023-09-18T08:42:22;365.27;;;346.90;;
60973;SDS011;46846;51.528;5.076;2023-09-18T08:44:48;379.77;;;361.05;;
60973;SDS011;46846;51.528;5.076;2023-09-18T08:47:17;353.63;;;336.05;;
60973;SDS011;46846;51.528;5.076;2023-09-18T08:49:44;379.60;;;360.60;;
60973;SDS011;46846;51.528;5.076;2023-09-18T08:52:13;362.95;;;345.08;;
60973;SDS011;46846;51.528;5.076;2023-09-18T08:54:40;363.67;;;345.15;;
60973;SDS011;46846;51.528;5.076;2023-09-18T08:57:08;374.10;;;355.63;;
60973;SDS011;46846;51.528;5.076;2023-09-18T08:59:34;362.13;;;344.23;;
60973;SDS011;46846;51.528;5.076;2023-09-18T09:02:00;367.75;;;349.38;;
60973;SDS011;46846;51.528;5.076;2023-09-18T09:04:26;385.77;;;366.67;;
60973;SDS011;46846;51.528;5.076;2023-09-18T09:06:52;368.95;;;350.65;;
60973;SDS011;46846;51.528;5.076;2023-09-18T09:09:17;363.23;;;345.23;;
60973;SDS011;46846;51.528;5.076;2023-09-18T09:11:50;370.75;;;352.10;;
60973;SDS011;46846;51.528;5.076;2023-09-18T09:14:17;370.25;;;351.17;;
60973;SDS011;46846;51.528;5.076;2023-09-18T09:16:47;366.40;;;348.02;;
60973;SDS011;46846;51.528;5.076;2023-09-18T09:19:15;365.63;;;347.42;;
60973;SDS011;46846;51.528;5.076;2023-09-18T09:21:42;357.38;;;339.25;;
60973;SDS011;46846;51.528;5.076;2023-09-18T09:24:09;373.50;;;355.08;;
60973;SDS011;46846;51.528;5.076;2023-09-18T09:26:42;367.08;;;348.25;;
60973;SDS011;46846;51.528;5.076;2023-09-18T09:29:14;379.10;;;360.42;;
60973;SDS011;46846;51.528;5.076;2023-09-18T09:34:08;363.83;;;345.73;;
60973;SDS011;46846;51.528;5.076;2023-09-18T09:36:34;362.17;;;343.73;;
60973;SDS011;46846;51.528;5.076;2023-09-18T09:38:59;370.80;;;351.90;;
60973;SDS011;46846;51.528;5.076;2023-09-18T09:41:25;376.80;;;357.55;;
60973;SDS011;46846;51.528;5.076;2023-09-18T09:43:55;377.85;;;358.70;;
60973;SDS011;46846;51.528;5.076;2023-09-18T09:46:21;375.23;;;356.55;;
60973;SDS011;46846;51.528;5.076;2023-09-18T09:49:05;385.60;;;366.35;;
60973;SDS011;46846;51.528;5.076;2023-09-18T09:51:31;386.07;;;366.00;;
60973;SDS011;46846;51.528;5.076;2023-09-18T09:53:58;368.27;;;349.80;;
60973;SDS011;46846;51.528;5.076;2023-09-18T09:59:10;388.23;;;369.00;;
60973;SDS011;46846;51.528;5.076;2023-09-18T10:01:37;379.00;;;360.20;;
60973;SDS011;46846;51.528;5.076;2023-09-18T10:04:09;379.13;;;360.20;;
60973;SDS011;46846;51.528;5.076;2023-09-18T10:06:42;381.15;;;362.30;;
60973;SDS011;46846;51.528;5.076;2023-09-18T10:09:09;364.83;;;346.35;;
60973;SDS011;46846;51.528;5.076;2023-09-18T10:11:48;394.73;;;375.10;;
60973;SDS011;46846;51.528;5.076;2023-09-18T10:14:16;374.58;;;355.77;;
60973;SDS011;46846;51.528;5.076;2023-09-18T10:16:45;400.20;;;379.80;;
60973;SDS011;46846;51.528;5.076;2023-09-18T10:19:31;390.88;;;371.55;;
60973;SDS011;46846;51.528;5.076;2023-09-18T10:24:49;388.55;;;369.27;;
60973;SDS011;46846;51.528;5.076;2023-09-18T10:27:17;377.10;;;358.33;;
60973;SDS011;46846;51.528;5.076;2023-09-18T10:29:46;387.35;;;367.73;;
60973;SDS011;46846;51.528;5.076;2023-09-18T10:32:14;392.20;;;372.50;;
60973;SDS011;46846;51.528;5.076;2023-09-18T10:34:41;386.98;;;367.50;;
60973;SDS011;46846;51.528;5.076;2023-09-18T10:37:08;384.30;;;365.17;;
60973;SDS011;46846;51.528;5.076;2023-09-18T10:39:37;400.80;;;380.92;;
60973;SDS011;46846;51.528;5.076;2023-09-18T10:42:04;387.23;;;367.95;;
60973;SDS011;46846;51.528;5.076;2023-09-18T10:44:33;367.63;;;349.05;;
60973;SDS011;46846;51.528;5.076;2023-09-18T10:47:00;390.33;;;370.13;;
60973;SDS011;46846;51.528;5.076;2023-09-18T10:49:28;384.27;;;364.70;;
60973;SDS011;46846;51.528;5.076;2023-09-18T10:51:54;393.40;;;373.98;;
60973;SDS011;46846;51.528;5.076;2023-09-18T10:54:21;385.75;;;366.55;;
60973;SDS011;46846;51.528;5.076;2023-09-18T10:56:48;399.30;;;379.23;;
60973;SDS011;46846;51.528;5.076;2023-09-18T10:59:14;383.50;;;364.33;;
60973;SDS011;46846;51.528;5.076;2023-09-18T11:01:43;384.05;;;364.85;;
60973;SDS011;46846;51.528;5.076;2023-09-18T11:04:09;381.48;;;362.42;;
60973;SDS011;46846;51.528;5.076;2023-09-18T11:09:19;369.50;;;351.05;;
60973;SDS011;46846;51.528;5.076;2023-09-18T11:11:46;393.38;;;373.55;;
60973;SDS011;46846;51.528;5.076;2023-09-18T11:14:21;384.42;;;364.70;;
60973;SDS011;46846;51.528;5.076;2023-09-18T11:16:47;393.92;;;374.00;;
60973;SDS011;46846;51.528;5.076;2023-09-18T11:19:17;389.88;;;370.40;;
60973;SDS011;46846;51.528;5.076;2023-09-18T11:21:44;365.60;;;347.35;;
60973;SDS011;46846;51.528;5.076;2023-09-18T11:24:18;390.67;;;370.98;;
60973;SDS011;46846;51.528;5.076;2023-09-18T11:26:46;383.15;;;363.95;;
60973;SDS011;46846;51.528;5.076;2023-09-18T11:29:14;390.65;;;371.15;;
60973;SDS011;46846;51.528;5.076;2023-09-18T11:31:51;381.00;;;362.00;;
60973;SDS011;46846;51.528;5.076;2023-09-18T11:34:28;384.95;;;365.85;;
60973;SDS011;46846;51.528;5.076;2023-09-18T11:37:01;368.33;;;349.88;;
60973;SDS011;46846;51.528;5.076;2023-09-18T11:39:32;400.83;;;381.08;;
60973;SDS011;46846;51.528;5.076;2023-09-18T11:42:20;381.17;;;362.10;;
60973;SDS011;46846;51.528;5.076;2023-09-18T11:44:51;387.40;;;368.15;;
60973;SDS011;46846;51.528;5.076;2023-09-18T11:47:23;381.65;;;362.80;;
60973;SDS011;46846;51.528;5.076;2023-09-18T11:50:09;391.05;;;371.05;;
60973;SDS011;46846;51.528;5.076;2023-09-18T11:52:36;394.08;;;374.23;;
60973;SDS011;46846;51.528;5.076;2023-09-18T11:55:02;387.02;;;367.80;;
60973;SDS011;46846;51.528;5.076;2023-09-18T11:57:28;389.10;;;369.55;;
60973;SDS011;46846;51.528;5.076;2023-09-18T12:00:00;394.98;;;375.33;;
60973;SDS011;46846;51.528;5.076;2023-09-18T12:02:36;393.20;;;373.67;;
60973;SDS011;46846;51.528;5.076;2023-09-18T12:05:10;396.63;;;376.77;;
60973;SDS011;46846;51.528;5.076;2023-09-18T12:07:44;387.85;;;367.85;;
60973;SDS011;46846;51.528;5.076;2023-09-18T12:10:11;400.08;;;380.05;;
60973;SDS011;46846;51.528;5.076;2023-09-18T12:12:38;405.00;;;384.83;;
60973;SDS011;46846;51.528;5.076;2023-09-18T12:15:04;381.23;;;362.00;;
60973;SDS011;46846;51.528;5.076;2023-09-18T12:17:30;394.85;;;375.05;;
60973;SDS011;46846;51.528;5.076;2023-09-18T12:19:55;384.73;;;365.67;;
60973;SDS011;46846;51.528;5.076;2023-09-18T12:22:24;422.23;;;399.70;;
60973;SDS011;46846;51.528;5.076;2023-09-18T12:24:53;421.90;;;400.92;;
60973;SDS011;46846;51.528;5.076;2023-09-18T12:27:19;394.65;;;375.20;;
60973;SDS011;46846;51.528;5.076;2023-09-18T12:29:44;398.58;;;378.52;;
60973;SDS011;46846;51.528;5.076;2023-09-18T12:32:10;392.65;;;373.27;;
60973;SDS011;46846;51.528;5.076;2023-09-18T12:34:40;399.15;;;378.38;;
60973;SDS011;46846;51.528;5.076;2023-09-18T12:37:08;390.92;;;371.27;;
60973;SDS011;46846;51.528;5.076;2023-09-18T12:39:36;400.55;;;380.40;;
60973;SDS011;46846;51.528;5.076;2023-09-18T12:42:02;407.20;;;386.33;;
60973;SDS011;46846;51.528;5.076;2023-09-18T12:44:29;393.63;;;374.00;;
60973;SDS011;46846;51.528;5.076;2023-09-18T12:46:55;399.73;;;380.13;;
60973;SDS011;46846;51.528;5.076;2023-09-18T12:49:21;402.67;;;382.67;;
60973;SDS011;46846;51.528;5.076;2023-09-18T12:51:59;405.23;;;384.67;;
60973;SDS011;46846;51.528;5.076;2023-09-18T12:57:05;397.23;;;377.58;;
60973;SDS011;46846;51.528;5.076;2023-09-18T12:59:35;418.73;;;398.13;;
60973;SDS011;46846;51.528;5.076;2023-09-18T13:02:02;387.35;;;367.65;;
60973;SDS011;46846;51.528;5.076;2023-09-18T13:04:30;404.65;;;384.73;;
60973;SDS011;46846;51.528;5.076;2023-09-18T13:07:07;396.02;;;376.33;;
60973;SDS011;46846;51.528;5.076;2023-09-18T13:09:34;417.30;;;396.70;;
60973;SDS011;46846;51.528;5.076;2023-09-18T13:12:03;406.02;;;385.88;;
60973;SDS011;46846;51.528;5.076;2023-09-18T13:14:29;397.42;;;377.80;;
60973;SDS011;46846;51.528;5.076;2023-09-18T13:17:01;407.52;;;387.35;;
60973;SDS011;46846;51.528;5.076;2023-09-18T13:19:29;412.47;;;392.33;;
60973;SDS011;46846;51.528;5.076;2023-09-18T13:21:55;404.02;;;384.17;;
60973;SDS011;46846;51.528;5.076;2023-09-18T13:24:27;401.42;;;381.67;;
60973;SDS011;46846;51.528;5.076;2023-09-18T13:26:54;407.63;;;387.38;;
60973;SDS011;46846;51.528;5.076;2023-09-18T13:29:20;398.77;;;378.90;;
60973;SDS011;46846;51.528;5.076;2023-09-18T13:31:46;412.30;;;391.98;;
60973;SDS011;46846;51.528;5.076;2023-09-18T13:34:11;407.20;;;386.80;;
60973;SDS011;46846;51.528;5.076;2023-09-18T13:36:37;416.92;;;396.48;;
60973;SDS011;46846;51.528;5.076;2023-09-18T13:39:02;404.15;;;384.05;;
60973;SDS011;46846;51.528;5.076;2023-09-18T13:41:28;420.17;;;399.50;;
60973;SDS011;46846;51.528;5.076;2023-09-18T13:43:54;410.58;;;390.33;;
60973;SDS011;46846;51.528;5.076;2023-09-18T13:46:20;411.10;;;390.83;;
60973;SDS011;46846;51.528;5.076;2023-09-18T13:48:46;394.65;;;375.10;;
60973;SDS011;46846;51.528;5.076;2023-09-18T13:51:12;398.02;;;378.45;;
60973;SDS011;46846;51.528;5.076;2023-09-18T13:53:38;409.80;;;389.70;;
60973;SDS011;46846;51.528;5.076;2023-09-18T13:56:06;398.40;;;378.85;;
60973;SDS011;46846;51.528;5.076;2023-09-18T13:58:31;410.83;;;390.67;;
60973;SDS011;46846;51.528;5.076;2023-09-18T14:00:57;419.88;;;399.42;;
60973;SDS011;46846;51.528;5.076;2023-09-18T14:03:22;428.15;;;407.20;;
60973;SDS011;46846;51.528;5.076;2023-09-18T14:05:49;413.55;;;393.20;;
60973;SDS011;46846;51.528;5.076;2023-09-18T14:08:14;418.10;;;397.80;;
60973;SDS011;46846;51.528;5.076;2023-09-18T14:10:41;397.42;;;378.00;;